RYR8201 EGPD-EPKK
Flight info
| Callsign | RYR8201 |
|---|---|
| Flight time | N/A |
| Altitude | 19000 |
| Route | ADN P600 LESNI/N0430F250 P600 BUDON/N0463F350 DCT SURAT DCT PETIL DCT KUGAL DCT PITEN Z998 BIRMO DCT SUBIX DCT LOLKO DCT MISKA DCT MOFKE |
| Aircraft | B738/M-SDE2E3FGHIRWXY/LB1 |
Departure
| Time | N/A |
|---|---|
| Airport | Aberdeen International Airport (EGPD) |
Arrival
| Time | 2026-05-04 00:33 |
|---|---|
| Airport | Kraków John Paul II International Airport (EPKK) |
| Time | Latitude | Longitude | Altitude | Speed | Heading |
|---|---|---|---|---|---|
| 2026-05-04 00:20 | 50.41398 | 19.76048 | 10732 ft | 291 kts | 155° |
| 2026-05-04 00:20 | 50.39589 | 19.77459 | 10449 ft | 289 kts | 155° |
| 2026-05-04 00:20 | 50.37793 | 19.78860 | 10166 ft | 287 kts | 155° |
| 2026-05-04 00:20 | 50.36021 | 19.80244 | 10016 ft | 279 kts | 155° |
| 2026-05-04 00:21 | 50.34295 | 19.81590 | 9630 ft | 280 kts | 156° |
| 2026-05-04 00:21 | 50.32566 | 19.82936 | 9473 ft | 273 kts | 155° |
| 2026-05-04 00:21 | 50.30885 | 19.84246 | 9280 ft | 268 kts | 155° |
| 2026-05-04 00:21 | 50.29781 | 19.85107 | 9088 ft | 267 kts | 155° |
| 2026-05-04 00:22 | 50.27560 | 19.86841 | 8674 ft | 266 kts | 155° |
| 2026-05-04 00:22 | 50.26463 | 19.87697 | 8485 ft | 266 kts | 155° |
| 2026-05-04 00:22 | 50.24813 | 19.88983 | 8215 ft | 264 kts | 156° |
| 2026-05-04 00:22 | 50.23173 | 19.90261 | 7933 ft | 263 kts | 156° |
| 2026-05-04 00:23 | 50.21541 | 19.91537 | 7650 ft | 262 kts | 154° |
| 2026-05-04 00:23 | 50.20153 | 19.93368 | 7344 ft | 267 kts | 126° |
| 2026-05-04 00:23 | 50.19492 | 19.96083 | 7064 ft | 272 kts | 99° |
| 2026-05-04 00:23 | 50.19600 | 19.99034 | 6794 ft | 274 kts | 81° |
| 2026-05-04 00:24 | 50.20006 | 20.01941 | 6504 ft | 275 kts | 80° |
| 2026-05-04 00:24 | 50.20423 | 20.04848 | 6204 ft | 274 kts | 79° |
| 2026-05-04 00:24 | 50.20872 | 20.07731 | 5928 ft | 273 kts | 78° |
| 2026-05-04 00:24 | 50.21330 | 20.10599 | 5666 ft | 271 kts | 78° |
| 2026-05-04 00:25 | 50.21784 | 20.13410 | 5391 ft | 270 kts | 78° |
| 2026-05-04 00:25 | 50.22233 | 20.16229 | 5209 ft | 264 kts | 78° |
| 2026-05-04 00:25 | 50.22513 | 20.19024 | 4944 ft | 259 kts | 97° |
| 2026-05-04 00:25 | 50.21844 | 20.21549 | 4641 ft | 254 kts | 134° |
| 2026-05-04 00:26 | 50.20373 | 20.22963 | 4339 ft | 250 kts | 164° |
| 2026-05-04 00:26 | 50.18662 | 20.23301 | 4034 ft | 248 kts | 185° |
| 2026-05-04 00:26 | 50.17020 | 20.22556 | 3753 ft | 247 kts | 209° |
| 2026-05-04 00:26 | 50.15725 | 20.20866 | 3617 ft | 240 kts | 232° |
| 2026-05-04 00:27 | 50.14899 | 20.18662 | 3552 ft | 232 kts | 243° |
| 2026-05-04 00:27 | 50.14225 | 20.16452 | 3552 ft | 219 kts | 243° |
| 2026-05-04 00:27 | 50.13603 | 20.14390 | 3591 ft | 201 kts | 243° |
| 2026-05-04 00:27 | 50.13013 | 20.12460 | 3582 ft | 195 kts | 243° |
| 2026-05-04 00:28 | 50.12430 | 20.10566 | 3595 ft | 192 kts | 243° |
| 2026-05-04 00:28 | 50.11914 | 20.08688 | 3596 ft | 186 kts | 253° |
| 2026-05-04 00:28 | 50.11673 | 20.06731 | 3609 ft | 183 kts | 258° |
| 2026-05-04 00:28 | 50.11447 | 20.04810 | 3623 ft | 181 kts | 255° |
| 2026-05-04 00:29 | 50.11190 | 20.02893 | 3603 ft | 180 kts | 254° |
| 2026-05-04 00:29 | 50.10923 | 20.00984 | 3472 ft | 179 kts | 254° |
| 2026-05-04 00:29 | 50.10659 | 19.99110 | 3240 ft | 174 kts | 254° |
| 2026-05-04 00:29 | 50.10403 | 19.97287 | 3013 ft | 170 kts | 254° |
| 2026-05-04 00:30 | 50.10155 | 19.95526 | 2799 ft | 162 kts | 254° |
| 2026-05-04 00:30 | 50.09923 | 19.93874 | 2633 ft | 150 kts | 254° |
| 2026-05-04 00:30 | 50.09695 | 19.92254 | 2403 ft | 153 kts | 254° |
| 2026-05-04 00:30 | 50.09470 | 19.90649 | 2182 ft | 151 kts | 255° |
| 2026-05-04 00:31 | 50.09247 | 19.89058 | 1978 ft | 151 kts | 256° |
| 2026-05-04 00:31 | 50.09022 | 19.87445 | 1776 ft | 154 kts | 257° |
| 2026-05-04 00:31 | 50.08793 | 19.85813 | 1563 ft | 155 kts | 255° |
| 2026-05-04 00:31 | 50.08562 | 19.84168 | 1356 ft | 156 kts | 257° |
| 2026-05-04 00:32 | 50.08338 | 19.82541 | 1151 ft | 156 kts | 257° |
| 2026-05-04 00:32 | 50.08099 | 19.80886 | 986 ft | 156 kts | 257° |
| 2026-05-04 00:32 | 50.07880 | 19.79249 | 810 ft | 150 kts | 256° |
| 2026-05-04 00:32 | 50.07679 | 19.77833 | 796 ft | 109 kts | 256° |
| 2026-05-04 00:33 | 50.07576 | 19.77079 | 802 ft | 45 kts | 257° |
| 2026-05-04 00:33 | 50.07493 | 19.76845 | 801 ft | 10 kts | 177° |
| 2026-05-04 00:33 | 50.07408 | 19.76868 | 799 ft | 14 kts | 168° |
| 2026-05-04 00:34 | 50.07320 | 19.76907 | 799 ft | 11 kts | 142° |
| 2026-05-04 00:34 | 50.07311 | 19.76991 | 799 ft | 8 kts | 77° |
| 2026-05-04 00:34 | 50.07331 | 19.77130 | 799 ft | 18 kts | 77° |
| 2026-05-04 00:34 | 50.07361 | 19.77345 | 799 ft | 23 kts | 77° |
| 2026-05-04 00:35 | 50.07398 | 19.77610 | 799 ft | 27 kts | 78° |
| 2026-05-04 00:35 | 50.07441 | 19.77917 | 799 ft | 31 kts | 76° |
| 2026-05-04 00:35 | 50.07486 | 19.78244 | 799 ft | 30 kts | 78° |
| 2026-05-04 00:35 | 50.07530 | 19.78557 | 799 ft | 29 kts | 77° |
| 2026-05-04 00:36 | 50.07571 | 19.78850 | 799 ft | 27 kts | 77° |
| 2026-05-04 00:36 | 50.07609 | 19.79123 | 799 ft | 25 kts | 77° |
| 2026-05-04 00:36 | 50.07645 | 19.79378 | 799 ft | 23 kts | 77° |
| 2026-05-04 00:36 | 50.07678 | 19.79619 | 799 ft | 22 kts | 77° |
| 2026-05-04 00:37 | 50.07703 | 19.79801 | 799 ft | 10 kts | 79° |
| 2026-05-04 00:37 | 50.07672 | 19.79876 | 799 ft | 9 kts | 161° |
| 2026-05-04 00:37 | 50.07614 | 19.79899 | 799 ft | 9 kts | 166° |
| 2026-05-04 00:37 | 50.07557 | 19.79918 | 799 ft | 8 kts | 168° |
| 2026-05-04 00:38 | 50.07513 | 19.79957 | 799 ft | 7 kts | 112° |
| 2026-05-04 00:38 | 50.07516 | 19.80026 | 799 ft | 2 kts | 78° |
| 2026-05-04 00:38 | 50.07516 | 19.80055 | 799 ft | 3 kts | 112° |
| 2026-05-04 00:38 | 50.07496 | 19.80071 | 799 ft | 5 kts | 161° |
| 2026-05-04 00:39 | 50.07482 | 19.80076 | 799 ft | 1 kts | 166° |
| 2026-05-04 00:39 | 50.07474 | 19.80079 | 799 ft | 1 kts | 167° |
| 2026-05-04 00:39 | 50.07473 | 19.80079 | 799 ft | 0 kts | 167° |
| 2026-05-04 00:41 | 0.00000 | 0.00000 | 1061 ft | 0 kts | 355° |